createdAt,value
2022-10-04T00:02:34.144Z,12.50
2022-10-04T00:24:24.208Z,12.20
2022-10-04T00:46:15.204Z,16.90
2022-10-04T01:08:09.224Z,12.90
2022-10-04T01:29:55.053Z,11.20
2022-10-04T01:51:48.049Z,12.40
2022-10-04T02:13:38.584Z,20.10
2022-10-04T02:35:25.741Z,15.30
2022-10-04T02:57:18.114Z,13.30
2022-10-04T03:19:04.823Z,13.20
2022-10-04T03:40:56.272Z,19.70
2022-10-04T04:02:48.573Z,15.70
2022-10-04T04:24:34.441Z,14.70
2022-10-04T04:46:27.530Z,15.60
2022-10-04T05:30:07.624Z,17.30
2022-10-04T05:51:57.009Z,14.90
2022-10-04T06:14:01.247Z,18.60
2022-10-04T06:36:14.059Z,15.70
2022-10-04T06:58:27.147Z,14.20
2022-10-04T07:20:22.786Z,16.10
2022-10-04T07:42:21.440Z,17.70
2022-10-04T08:04:20.383Z,15.10
2022-10-04T08:26:23.364Z,10.60
2022-10-04T08:48:40.559Z,10.50
2022-10-04T09:10:39.918Z,11.50
2022-10-04T09:33:07.655Z,12.80
2022-10-04T09:55:24.302Z,10.50
2022-10-04T10:17:20.829Z,7.90
2022-10-04T10:39:38.036Z,9.50
2022-10-04T11:01:48.545Z,11.60
2022-10-04T11:24:02.645Z,11.70
2022-10-04T11:46:11.085Z,11.20
2022-10-04T12:08:13.703Z,8.50
2022-10-04T12:30:27.641Z,9.70
2022-10-04T12:52:20.224Z,7.70
2022-10-04T13:14:39.642Z,9.60
2022-10-04T13:36:37.870Z,7.70
2022-10-04T13:58:36.734Z,8.90
2022-10-04T14:21:19.178Z,9.00
2022-10-04T14:43:31.964Z,12.90
2022-10-04T15:05:45.995Z,10.20
2022-10-04T15:27:54.665Z,13.40
2022-10-04T15:49:58.240Z,10.10
2022-10-04T16:12:07.374Z,11.70
2022-10-04T16:34:03.350Z,12.80
2022-10-04T16:55:57.903Z,9.40
2022-10-04T17:17:51.879Z,13.10
2022-10-04T17:39:46.048Z,15.50
2022-10-04T18:01:39.048Z,13.60
2022-10-04T18:23:28.333Z,19.80
2022-10-04T18:45:25.634Z,18.80
2022-10-04T19:07:14.960Z,16.10
2022-10-04T19:29:11.002Z,14.80
2022-10-04T19:51:04.554Z,20.20
2022-10-04T20:13:16.959Z,18.70
2022-10-04T20:35:04.324Z,22.30
2022-10-04T20:56:56.216Z,19.40
2022-10-04T21:18:42.200Z,24.40
2022-10-04T21:40:31.024Z,23.50
2022-10-04T22:02:16.928Z,25.40
2022-10-04T22:24:04.121Z,19.00
2022-10-04T22:45:50.081Z,21.30
2022-10-04T23:07:38.339Z,22.90
2022-10-04T23:29:28.870Z,22.70
2022-10-04T23:51:17.794Z,18.90
